< Typhoon 196206 1962 Season Typhoon 196208 >
Typhoon 196207 (LOUISE)
General InformationTrack Information on Google Maps || Disaster Info.ResourceGoogle EarthGE AnimationAtom FeedGeoJSON
Detalied Best Track (Time Zone = UTC)
Year Month Day Hour Lat. Long. Pressure (hPa) Wind (kt) Class Image Chart
1962 7 20 18 22.0 156.0 1002 0 2 -- Chart
1962 7 21 00 22.7 155.8 998 0 9 -- Chart
1962 7 21 06 23.5 156.0 994 0 9 -- Chart
1962 7 21 12 24.3 156.3 990 0 9 -- Chart
1962 7 21 18 25.4 156.5 980 0 9 -- Chart
1962 7 22 00 26.2 155.9 968 0 9 -- Chart
1962 7 22 06 26.6 155.0 968 0 9 -- Chart
1962 7 22 12 26.8 154.0 968 0 9 -- Chart
1962 7 22 18 27.2 153.1 968 0 9 -- Chart
1962 7 23 00 27.5 152.0 975 0 9 -- Chart
1962 7 23 06 27.7 150.7 960 0 9 -- Chart
1962 7 23 12 27.6 149.4 960 0 9 -- Chart
1962 7 23 18 27.7 147.7 960 0 9 -- Chart
1962 7 24 00 27.8 146.0 965 0 9 -- Chart
1962 7 24 06 27.7 144.5 965 0 9 -- Chart
1962 7 24 12 28.0 143.0 965 0 9 -- Chart
1962 7 24 18 28.7 142.0 965 0 9 -- Chart
1962 7 25 00 28.8 140.8 965 0 9 -- Chart
1962 7 25 06 29.5 139.6 970 0 9 -- Chart
1962 7 25 12 29.7 138.8 970 0 9 -- Chart
1962 7 25 18 30.2 137.8 970 0 9 -- Chart
1962 7 26 00 30.7 137.0 970 0 9 -- Chart
1962 7 26 06 31.2 136.0 970 0 9 -- Chart
1962 7 26 12 31.8 135.4 975 0 9 -- Chart
1962 7 26 18 32.3 135.0 970 0 9 -- Chart
1962 7 27 00 32.7 134.9 970 0 9 -- Chart
1962 7 27 06 33.8 135.4 978 0 9 -- Chart
1962 7 27 12 34.6 136.0 988 0 9 -- Chart
1962 7 27 18 35.2 136.5 996 0 9 -- Chart
1962 7 28 00 35.5 137.6 1000 0 2 -- Chart
1962 7 28 06 36.2 139.4 1004 0 6 -- Chart
1962 7 28 12 36.5 141.0 1003 0 6 -- Chart
1962 7 28 18 37.4 142.6 1004 0 6 -- Chart
1962 7 29 00 38.3 144.0 1004 0 6 -- Chart
1962 7 29 06 39.6 145.4 1004 0 6 -- Chart
1962 7 29 12 40.5 146.5 1006 0 6 -- Chart
Japan Meteorological Agency Best Track Data | Correction Date : 1989-06-01
< Typhoon 196206 1962 Season Typhoon 196208 >

Help